sensor_id;sensor_type;location;lat;lon;timestamp;temperature;humidity
11214;DHT22;5664;48.606;13.456;2023-04-25T00:01:45;17.80;64.20
11214;DHT22;5664;48.606;13.456;2023-04-25T00:04:11;17.80;64.10
11214;DHT22;5664;48.606;13.456;2023-04-25T00:06:36;17.70;64.10
11214;DHT22;5664;48.606;13.456;2023-04-25T00:09:03;17.70;64.10
11214;DHT22;5664;48.606;13.456;2023-04-25T00:11:29;17.80;64.20
11214;DHT22;5664;48.606;13.456;2023-04-25T00:13:56;17.70;64.10
11214;DHT22;5664;48.606;13.456;2023-04-25T00:16:22;17.70;64.10
11214;DHT22;5664;48.606;13.456;2023-04-25T00:18:49;17.70;64.10
11214;DHT22;5664;48.606;13.456;2023-04-25T00:21:17;17.70;64.10
11214;DHT22;5664;48.606;13.456;2023-04-25T00:23:43;17.70;64.10
11214;DHT22;5664;48.606;13.456;2023-04-25T00:26:08;17.70;64.10
11214;DHT22;5664;48.606;13.456;2023-04-25T00:28:34;17.70;64.10
11214;DHT22;5664;48.606;13.456;2023-04-25T00:30:59;17.70;64.10
11214;DHT22;5664;48.606;13.456;2023-04-25T00:33:25;17.70;64.10
11214;DHT22;5664;48.606;13.456;2023-04-25T00:35:50;17.70;64.10
11214;DHT22;5664;48.606;13.456;2023-04-25T00:38:16;17.70;64.10
11214;DHT22;5664;48.606;13.456;2023-04-25T00:40:41;17.70;64.10
11214;DHT22;5664;48.606;13.456;2023-04-25T00:43:08;17.70;64.10
11214;DHT22;5664;48.606;13.456;2023-04-25T00:45:34;17.70;64.10
11214;DHT22;5664;48.606;13.456;2023-04-25T00:48:03;17.70;64.10
11214;DHT22;5664;48.606;13.456;2023-04-25T00:50:29;17.70;64.10
11214;DHT22;5664;48.606;13.456;2023-04-25T00:52:54;17.70;64.10
11214;DHT22;5664;48.606;13.456;2023-04-25T00:55:20;17.70;64.10
11214;DHT22;5664;48.606;13.456;2023-04-25T00:57:46;17.70;64.10
11214;DHT22;5664;48.606;13.456;2023-04-25T01:00:12;17.70;64.10
11214;DHT22;5664;48.606;13.456;2023-04-25T01:02:39;17.70;64.10
11214;DHT22;5664;48.606;13.456;2023-04-25T01:05:05;17.70;64.10
11214;DHT22;5664;48.606;13.456;2023-04-25T01:07:30;17.70;64.10
11214;DHT22;5664;48.606;13.456;2023-04-25T01:09:56;17.70;64.10
11214;DHT22;5664;48.606;13.456;2023-04-25T01:12:22;17.70;64.10
11214;DHT22;5664;48.606;13.456;2023-04-25T01:14:48;17.70;64.10
11214;DHT22;5664;48.606;13.456;2023-04-25T01:17:13;17.70;65.00
11214;DHT22;5664;48.606;13.456;2023-04-25T01:19:40;17.70;64.20
11214;DHT22;5664;48.606;13.456;2023-04-25T01:22:05;17.70;64.20
11214;DHT22;5664;48.606;13.456;2023-04-25T01:24:31;17.70;64.20
11214;DHT22;5664;48.606;13.456;2023-04-25T01:26:58;17.70;64.10
11214;DHT22;5664;48.606;13.456;2023-04-25T01:29:23;17.70;64.10
11214;DHT22;5664;48.606;13.456;2023-04-25T01:31:50;17.70;64.20
11214;DHT22;5664;48.606;13.456;2023-04-25T01:34:16;17.70;64.20
11214;DHT22;5664;48.606;13.456;2023-04-25T01:36:41;17.70;64.20
11214;DHT22;5664;48.606;13.456;2023-04-25T01:39:07;17.60;64.10
11214;DHT22;5664;48.606;13.456;2023-04-25T01:41:33;17.60;64.10
11214;DHT22;5664;48.606;13.456;2023-04-25T01:44:00;17.60;64.10
11214;DHT22;5664;48.606;13.456;2023-04-25T01:46:25;17.70;64.10
11214;DHT22;5664;48.606;13.456;2023-04-25T01:48:51;17.60;64.10
11214;DHT22;5664;48.606;13.456;2023-04-25T01:51:16;17.70;64.20
11214;DHT22;5664;48.606;13.456;2023-04-25T01:53:42;17.60;64.10
11214;DHT22;5664;48.606;13.456;2023-04-25T01:56:08;17.70;64.20
11214;DHT22;5664;48.606;13.456;2023-04-25T01:58:34;17.70;64.20
11214;DHT22;5664;48.606;13.456;2023-04-25T02:00:59;17.60;64.10
11214;DHT22;5664;48.606;13.456;2023-04-25T02:03:25;17.60;64.10
11214;DHT22;5664;48.606;13.456;2023-04-25T02:05:50;17.70;64.10
11214;DHT22;5664;48.606;13.456;2023-04-25T02:08:16;17.70;64.10
11214;DHT22;5664;48.606;13.456;2023-04-25T02:10:41;17.60;64.10
11214;DHT22;5664;48.606;13.456;2023-04-25T02:13:07;17.60;64.10
11214;DHT22;5664;48.606;13.456;2023-04-25T02:15:32;17.60;64.10
11214;DHT22;5664;48.606;13.456;2023-04-25T02:17:58;17.60;64.90
11214;DHT22;5664;48.606;13.456;2023-04-25T02:20:25;17.60;64.10
11214;DHT22;5664;48.606;13.456;2023-04-25T02:22:51;17.60;64.20
11214;DHT22;5664;48.606;13.456;2023-04-25T02:25:17;17.60;64.20
11214;DHT22;5664;48.606;13.456;2023-04-25T02:27:42;17.60;64.10
11214;DHT22;5664;48.606;13.456;2023-04-25T02:30:08;17.70;64.20
11214;DHT22;5664;48.606;13.456;2023-04-25T02:32:34;17.60;64.10
11214;DHT22;5664;48.606;13.456;2023-04-25T02:35:00;17.60;64.20
11214;DHT22;5664;48.606;13.456;2023-04-25T02:37:35;17.60;64.20
11214;DHT22;5664;48.606;13.456;2023-04-25T02:40:00;17.60;64.20
11214;DHT22;5664;48.606;13.456;2023-04-25T02:42:26;17.60;64.20
11214;DHT22;5664;48.606;13.456;2023-04-25T02:44:52;17.60;64.10
11214;DHT22;5664;48.606;13.456;2023-04-25T02:47:17;17.60;64.20
11214;DHT22;5664;48.606;13.456;2023-04-25T02:49:43;17.60;64.10
11214;DHT22;5664;48.606;13.456;2023-04-25T02:52:08;17.60;64.20
11214;DHT22;5664;48.606;13.456;2023-04-25T02:54:34;17.60;64.10
11214;DHT22;5664;48.606;13.456;2023-04-25T02:56:59;17.60;64.10
11214;DHT22;5664;48.606;13.456;2023-04-25T02:59:26;17.60;64.10
11214;DHT22;5664;48.606;13.456;2023-04-25T03:01:51;17.60;64.10
11214;DHT22;5664;48.606;13.456;2023-04-25T03:04:17;17.60;64.20
11214;DHT22;5664;48.606;13.456;2023-04-25T03:06:44;17.60;64.20
11214;DHT22;5664;48.606;13.456;2023-04-25T03:09:09;17.60;64.20
11214;DHT22;5664;48.606;13.456;2023-04-25T03:11:36;17.60;64.20
11214;DHT22;5664;48.606;13.456;2023-04-25T03:14:02;17.60;64.20
11214;DHT22;5664;48.606;13.456;2023-04-25T03:16:27;17.60;64.10
11214;DHT22;5664;48.606;13.456;2023-04-25T03:18:53;17.60;64.10
11214;DHT22;5664;48.606;13.456;2023-04-25T03:21:18;17.50;64.10
11214;DHT22;5664;48.606;13.456;2023-04-25T03:23:44;17.50;64.10
11214;DHT22;5664;48.606;13.456;2023-04-25T03:26:09;17.50;64.10
11214;DHT22;5664;48.606;13.456;2023-04-25T03:28:35;17.50;64.20
11214;DHT22;5664;48.606;13.456;2023-04-25T03:31:00;17.50;64.20
11214;DHT22;5664;48.606;13.456;2023-04-25T03:33:26;17.50;64.20
11214;DHT22;5664;48.606;13.456;2023-04-25T03:35:51;17.60;64.20
11214;DHT22;5664;48.606;13.456;2023-04-25T03:38:17;17.50;64.10
11214;DHT22;5664;48.606;13.456;2023-04-25T03:40:42;17.60;64.20
11214;DHT22;5664;48.606;13.456;2023-04-25T03:43:08;17.60;64.10
11214;DHT22;5664;48.606;13.456;2023-04-25T03:45:33;17.60;64.10
11214;DHT22;5664;48.606;13.456;2023-04-25T03:47:59;17.60;64.10
11214;DHT22;5664;48.606;13.456;2023-04-25T03:50:24;17.60;64.10
11214;DHT22;5664;48.606;13.456;2023-04-25T03:52:50;17.60;64.10
11214;DHT22;5664;48.606;13.456;2023-04-25T03:55:15;17.60;64.10
11214;DHT22;5664;48.606;13.456;2023-04-25T03:57:40;17.60;64.10
11214;DHT22;5664;48.606;13.456;2023-04-25T04:00:06;17.60;64.10
11214;DHT22;5664;48.606;13.456;2023-04-25T04:02:32;17.60;64.10
11214;DHT22;5664;48.606;13.456;2023-04-25T04:04:59;17.60;64.10
11214;DHT22;5664;48.606;13.456;2023-04-25T04:07:24;17.60;64.10
11214;DHT22;5664;48.606;13.456;2023-04-25T04:09:50;17.50;64.00
11214;DHT22;5664;48.606;13.456;2023-04-25T04:12:15;17.50;64.10
11214;DHT22;5664;48.606;13.456;2023-04-25T04:14:41;17.60;64.10
11214;DHT22;5664;48.606;13.456;2023-04-25T04:17:06;17.50;64.00
11214;DHT22;5664;48.606;13.456;2023-04-25T04:19:32;17.60;64.00
11214;DHT22;5664;48.606;13.456;2023-04-25T04:21:57;17.50;64.00
11214;DHT22;5664;48.606;13.456;2023-04-25T04:24:23;17.60;64.00
11214;DHT22;5664;48.606;13.456;2023-04-25T04:26:49;17.60;64.00
11214;DHT22;5664;48.606;13.456;2023-04-25T04:29:16;17.60;64.10
11214;DHT22;5664;48.606;13.456;2023-04-25T04:31:48;17.60;64.00
11214;DHT22;5664;48.606;13.456;2023-04-25T04:34:14;17.50;64.00
11214;DHT22;5664;48.606;13.456;2023-04-25T04:36:41;17.50;64.00
11214;DHT22;5664;48.606;13.456;2023-04-25T04:39:07;17.60;64.00
11214;DHT22;5664;48.606;13.456;2023-04-25T04:41:34;17.50;64.00
11214;DHT22;5664;48.606;13.456;2023-04-25T04:43:59;17.50;64.00
11214;DHT22;5664;48.606;13.456;2023-04-25T04:46:28;17.60;64.00
11214;DHT22;5664;48.606;13.456;2023-04-25T04:48:53;17.50;64.00
11214;DHT22;5664;48.606;13.456;2023-04-25T04:51:19;17.60;64.10
11214;DHT22;5664;48.606;13.456;2023-04-25T04:53:45;17.60;64.10
11214;DHT22;5664;48.606;13.456;2023-04-25T04:56:11;17.50;64.00
11214;DHT22;5664;48.606;13.456;2023-04-25T04:58:37;17.50;64.10
11214;DHT22;5664;48.606;13.456;2023-04-25T05:01:02;17.50;64.00
11214;DHT22;5664;48.606;13.456;2023-04-25T05:03:28;17.50;64.00
11214;DHT22;5664;48.606;13.456;2023-04-25T05:05:53;17.60;64.10
11214;DHT22;5664;48.606;13.456;2023-04-25T05:08:19;17.50;64.00
11214;DHT22;5664;48.606;13.456;2023-04-25T05:10:44;17.50;64.00
11214;DHT22;5664;48.606;13.456;2023-04-25T05:13:10;17.50;64.00
11214;DHT22;5664;48.606;13.456;2023-04-25T05:15:35;17.50;64.10
11214;DHT22;5664;48.606;13.456;2023-04-25T05:18:01;17.50;64.00
11214;DHT22;5664;48.606;13.456;2023-04-25T05:20:26;17.50;64.10
11214;DHT22;5664;48.606;13.456;2023-04-25T05:22:52;17.50;64.00
11214;DHT22;5664;48.606;13.456;2023-04-25T05:25:17;17.50;64.00
11214;DHT22;5664;48.606;13.456;2023-04-25T05:27:43;17.50;64.00
11214;DHT22;5664;48.606;13.456;2023-04-25T05:30:08;17.50;64.00
11214;DHT22;5664;48.606;13.456;2023-04-25T05:32:34;17.50;64.00
11214;DHT22;5664;48.606;13.456;2023-04-25T05:35:01;17.50;64.00
11214;DHT22;5664;48.606;13.456;2023-04-25T05:37:26;17.50;64.00
11214;DHT22;5664;48.606;13.456;2023-04-25T05:39:52;17.50;64.00
11214;DHT22;5664;48.606;13.456;2023-04-25T05:42:17;17.50;64.00
11214;DHT22;5664;48.606;13.456;2023-04-25T05:44:43;17.50;64.00
11214;DHT22;5664;48.606;13.456;2023-04-25T05:47:08;17.60;64.10
11214;DHT22;5664;48.606;13.456;2023-04-25T05:49:34;17.60;64.10
11214;DHT22;5664;48.606;13.456;2023-04-25T05:52:00;17.60;64.10
11214;DHT22;5664;48.606;13.456;2023-04-25T05:54:25;17.60;64.10
11214;DHT22;5664;48.606;13.456;2023-04-25T05:56:51;17.60;64.20
11214;DHT22;5664;48.606;13.456;2023-04-25T05:59:16;17.60;64.20
11214;DHT22;5664;48.606;13.456;2023-04-25T06:01:41;17.60;64.20
11214;DHT22;5664;48.606;13.456;2023-04-25T06:04:07;17.60;64.20
11214;DHT22;5664;48.606;13.456;2023-04-25T06:06:32;17.60;64.20
11214;DHT22;5664;48.606;13.456;2023-04-25T06:08:58;17.60;64.30
11214;DHT22;5664;48.606;13.456;2023-04-25T06:11:23;17.60;64.20
11214;DHT22;5664;48.606;13.456;2023-04-25T06:13:49;17.60;64.20
11214;DHT22;5664;48.606;13.456;2023-04-25T06:16:14;17.60;64.20
11214;DHT22;5664;48.606;13.456;2023-04-25T06:18:40;17.50;64.20
11214;DHT22;5664;48.606;13.456;2023-04-25T06:21:06;17.50;64.20
11214;DHT22;5664;48.606;13.456;2023-04-25T06:23:31;17.60;64.30
11214;DHT22;5664;48.606;13.456;2023-04-25T06:25:57;17.50;64.20
11214;DHT22;5664;48.606;13.456;2023-04-25T06:28:22;17.50;64.20
11214;DHT22;5664;48.606;13.456;2023-04-25T06:30:49;17.50;64.30
11214;DHT22;5664;48.606;13.456;2023-04-25T06:33:15;17.50;64.30
11214;DHT22;5664;48.606;13.456;2023-04-25T06:35:40;17.50;64.30
11214;DHT22;5664;48.606;13.456;2023-04-25T06:38:06;17.50;64.30
11214;DHT22;5664;48.606;13.456;2023-04-25T06:40:31;17.50;64.30
11214;DHT22;5664;48.606;13.456;2023-04-25T06:42:57;17.50;64.30
11214;DHT22;5664;48.606;13.456;2023-04-25T06:45:22;17.60;64.30
11214;DHT22;5664;48.606;13.456;2023-04-25T06:47:48;17.60;64.30
11214;DHT22;5664;48.606;13.456;2023-04-25T06:50:13;17.60;64.30
11214;DHT22;5664;48.606;13.456;2023-04-25T06:52:38;17.60;64.30
11214;DHT22;5664;48.606;13.456;2023-04-25T06:55:04;17.50;65.10
11214;DHT22;5664;48.606;13.456;2023-04-25T06:57:30;17.50;64.40
11214;DHT22;5664;48.606;13.456;2023-04-25T06:59:56;17.50;64.40
11214;DHT22;5664;48.606;13.456;2023-04-25T07:02:21;17.50;65.20
11214;DHT22;5664;48.606;13.456;2023-04-25T07:04:47;17.50;64.40
11214;DHT22;5664;48.606;13.456;2023-04-25T07:07:13;17.50;64.40
11214;DHT22;5664;48.606;13.456;2023-04-25T07:09:38;17.50;64.40
11214;DHT22;5664;48.606;13.456;2023-04-25T07:12:04;17.50;64.40
11214;DHT22;5664;48.606;13.456;2023-04-25T07:14:29;17.50;64.40
11214;DHT22;5664;48.606;13.456;2023-04-25T07:16:55;17.50;64.40
11214;DHT22;5664;48.606;13.456;2023-04-25T07:19:22;17.50;64.40
11214;DHT22;5664;48.606;13.456;2023-04-25T07:21:49;17.50;64.40
11214;DHT22;5664;48.606;13.456;2023-04-25T07:24:14;17.50;64.40
11214;DHT22;5664;48.606;13.456;2023-04-25T07:26:40;17.50;64.40
11214;DHT22;5664;48.606;13.456;2023-04-25T07:29:05;17.50;64.40
11214;DHT22;5664;48.606;13.456;2023-04-25T07:31:31;17.50;64.40
11214;DHT22;5664;48.606;13.456;2023-04-25T07:33:56;17.50;64.40
11214;DHT22;5664;48.606;13.456;2023-04-25T07:36:22;17.60;64.40
11214;DHT22;5664;48.606;13.456;2023-04-25T07:38:47;17.50;64.30
11214;DHT22;5664;48.606;13.456;2023-04-25T07:41:12;17.50;64.40
11214;DHT22;5664;48.606;13.456;2023-04-25T07:43:38;17.60;64.40
11214;DHT22;5664;48.606;13.456;2023-04-25T07:46:03;17.60;64.40
11214;DHT22;5664;48.606;13.456;2023-04-25T07:48:29;17.60;64.50
11214;DHT22;5664;48.606;13.456;2023-04-25T07:50:55;17.60;64.40
11214;DHT22;5664;48.606;13.456;2023-04-25T07:53:20;17.60;64.40
11214;DHT22;5664;48.606;13.456;2023-04-25T07:55:46;17.60;64.30
11214;DHT22;5664;48.606;13.456;2023-04-25T07:58:11;17.60;64.40
11214;DHT22;5664;48.606;13.456;2023-04-25T08:00:37;17.60;64.30
11214;DHT22;5664;48.606;13.456;2023-04-25T08:03:03;17.60;64.30
11214;DHT22;5664;48.606;13.456;2023-04-25T08:05:28;17.60;64.30
11214;DHT22;5664;48.606;13.456;2023-04-25T08:07:54;17.60;64.30
11214;DHT22;5664;48.606;13.456;2023-04-25T08:10:20;17.60;64.30
11214;DHT22;5664;48.606;13.456;2023-04-25T08:12:47;17.60;64.30
11214;DHT22;5664;48.606;13.456;2023-04-25T08:15:13;17.60;64.30
11214;DHT22;5664;48.606;13.456;2023-04-25T08:17:39;17.70;64.40
11214;DHT22;5664;48.606;13.456;2023-04-25T08:20:04;17.60;64.30
11214;DHT22;5664;48.606;13.456;2023-04-25T08:22:31;17.60;64.40
11214;DHT22;5664;48.606;13.456;2023-04-25T08:24:56;17.60;64.40
11214;DHT22;5664;48.606;13.456;2023-04-25T08:27:22;17.60;64.50
11214;DHT22;5664;48.606;13.456;2023-04-25T08:29:47;17.70;65.40
11214;DHT22;5664;48.606;13.456;2023-04-25T08:32:13;17.60;64.60
11214;DHT22;5664;48.606;13.456;2023-04-25T08:34:39;17.60;64.60
11214;DHT22;5664;48.606;13.456;2023-04-25T08:37:07;17.60;64.60
11214;DHT22;5664;48.606;13.456;2023-04-25T08:39:33;17.60;64.60
11214;DHT22;5664;48.606;13.456;2023-04-25T08:41:59;17.60;64.60
11214;DHT22;5664;48.606;13.456;2023-04-25T08:44:26;17.60;64.60
11214;DHT22;5664;48.606;13.456;2023-04-25T08:46:51;17.60;64.60
11214;DHT22;5664;48.606;13.456;2023-04-25T08:49:17;17.60;64.50
11214;DHT22;5664;48.606;13.456;2023-04-25T08:51:45;17.60;64.60
11214;DHT22;5664;48.606;13.456;2023-04-25T08:54:12;17.60;64.60
11214;DHT22;5664;48.606;13.456;2023-04-25T08:56:38;17.60;65.40
11214;DHT22;5664;48.606;13.456;2023-04-25T08:59:05;17.60;64.60
11214;DHT22;5664;48.606;13.456;2023-04-25T09:01:34;17.60;64.60
11214;DHT22;5664;48.606;13.456;2023-04-25T09:03:59;17.50;64.60
11214;DHT22;5664;48.606;13.456;2023-04-25T09:06:25;17.50;64.60
11214;DHT22;5664;48.606;13.456;2023-04-25T09:08:51;17.50;64.70
11214;DHT22;5664;48.606;13.456;2023-04-25T09:11:16;17.50;64.60
11214;DHT22;5664;48.606;13.456;2023-04-25T09:13:42;17.50;64.70
11214;DHT22;5664;48.606;13.456;2023-04-25T09:16:08;17.50;64.70
11214;DHT22;5664;48.606;13.456;2023-04-25T09:18:34;17.50;64.60
11214;DHT22;5664;48.606;13.456;2023-04-25T09:21:07;17.50;64.60
11214;DHT22;5664;48.606;13.456;2023-04-25T09:23:43;17.50;64.70
11214;DHT22;5664;48.606;13.456;2023-04-25T09:26:09;17.50;64.70
11214;DHT22;5664;48.606;13.456;2023-04-25T09:28:35;17.50;64.70
11214;DHT22;5664;48.606;13.456;2023-04-25T09:31:01;17.10;64.50
11214;DHT22;5664;48.606;13.456;2023-04-25T09:33:27;17.50;64.70
11214;DHT22;5664;48.606;13.456;2023-04-25T09:35:54;17.50;64.60
11214;DHT22;5664;48.606;13.456;2023-04-25T09:38:21;17.50;64.70
11214;DHT22;5664;48.606;13.456;2023-04-25T09:40:48;17.40;64.60
11214;DHT22;5664;48.606;13.456;2023-04-25T09:43:18;17.50;64.70
11214;DHT22;5664;48.606;13.456;2023-04-25T09:45:43;17.50;64.70
11214;DHT22;5664;48.606;13.456;2023-04-25T09:48:17;17.50;64.60
11214;DHT22;5664;48.606;13.456;2023-04-25T09:50:44;17.40;64.50
11214;DHT22;5664;48.606;13.456;2023-04-25T09:53:09;17.50;64.60
11214;DHT22;5664;48.606;13.456;2023-04-25T09:55:35;17.50;64.60
11214;DHT22;5664;48.606;13.456;2023-04-25T09:58:04;17.50;64.60
11214;DHT22;5664;48.606;13.456;2023-04-25T10:00:32;17.50;64.60
11214;DHT22;5664;48.606;13.456;2023-04-25T10:02:58;17.50;64.60
11214;DHT22;5664;48.606;13.456;2023-04-25T10:05:25;17.50;64.60
11214;DHT22;5664;48.606;13.456;2023-04-25T10:07:52;17.50;64.50
11214;DHT22;5664;48.606;13.456;2023-04-25T10:10:19;17.50;64.60
11214;DHT22;5664;48.606;13.456;2023-04-25T10:12:51;17.50;64.60
11214;DHT22;5664;48.606;13.456;2023-04-25T10:15:16;17.50;64.60
11214;DHT22;5664;48.606;13.456;2023-04-25T10:17:42;17.50;64.60
11214;DHT22;5664;48.606;13.456;2023-04-25T10:20:08;17.50;64.60
11214;DHT22;5664;48.606;13.456;2023-04-25T10:22:36;17.50;64.60
11214;DHT22;5664;48.606;13.456;2023-04-25T10:25:03;17.50;64.60
11214;DHT22;5664;48.606;13.456;2023-04-25T10:27:29;17.50;64.70
11214;DHT22;5664;48.606;13.456;2023-04-25T10:32:32;17.40;64.60
11214;DHT22;5664;48.606;13.456;2023-04-25T10:35:09;17.50;64.70
11214;DHT22;5664;48.606;13.456;2023-04-25T10:37:35;17.50;64.70
11214;DHT22;5664;48.606;13.456;2023-04-25T10:40:07;17.40;64.60
11214;DHT22;5664;48.606;13.456;2023-04-25T10:42:33;17.40;64.50
11214;DHT22;5664;48.606;13.456;2023-04-25T10:45:03;17.40;64.50
11214;DHT22;5664;48.606;13.456;2023-04-25T10:47:34;17.50;64.60
11214;DHT22;5664;48.606;13.456;2023-04-25T10:50:04;17.40;64.60
11214;DHT22;5664;48.606;13.456;2023-04-25T10:52:29;17.40;64.60
11214;DHT22;5664;48.606;13.456;2023-04-25T10:54:56;17.40;64.60
11214;DHT22;5664;48.606;13.456;2023-04-25T10:57:32;17.40;64.60
11214;DHT22;5664;48.606;13.456;2023-04-25T10:59:59;17.40;64.50
11214;DHT22;5664;48.606;13.456;2023-04-25T11:02:28;17.40;64.60
11214;DHT22;5664;48.606;13.456;2023-04-25T11:04:54;17.40;64.50
11214;DHT22;5664;48.606;13.456;2023-04-25T11:07:28;17.40;64.50
11214;DHT22;5664;48.606;13.456;2023-04-25T11:09:57;17.40;64.50
11214;DHT22;5664;48.606;13.456;2023-04-25T11:12:24;17.40;64.60
11214;DHT22;5664;48.606;13.456;2023-04-25T11:14:49;17.40;64.60
11214;DHT22;5664;48.606;13.456;2023-04-25T11:17:15;17.40;64.60
11214;DHT22;5664;48.606;13.456;2023-04-25T11:19:40;17.40;64.60
11214;DHT22;5664;48.606;13.456;2023-04-25T11:22:06;17.40;64.60
11214;DHT22;5664;48.606;13.456;2023-04-25T11:24:34;17.40;64.60
11214;DHT22;5664;48.606;13.456;2023-04-25T11:27:00;17.40;64.60
11214;DHT22;5664;48.606;13.456;2023-04-25T11:29:29;17.40;64.60
11214;DHT22;5664;48.606;13.456;2023-04-25T11:31:55;17.40;64.60
11214;DHT22;5664;48.606;13.456;2023-04-25T11:34:24;17.40;64.60
11214;DHT22;5664;48.606;13.456;2023-04-25T11:36:50;17.40;64.50
11214;DHT22;5664;48.606;13.456;2023-04-25T11:39:17;17.40;64.50
11214;DHT22;5664;48.606;13.456;2023-04-25T11:41:43;17.40;64.60
11214;DHT22;5664;48.606;13.456;2023-04-25T11:44:09;17.40;64.60
11214;DHT22;5664;48.606;13.456;2023-04-25T11:46:34;17.40;64.60
11214;DHT22;5664;48.606;13.456;2023-04-25T11:49:00;17.40;64.70
11214;DHT22;5664;48.606;13.456;2023-04-25T11:51:25;17.40;64.60
11214;DHT22;5664;48.606;13.456;2023-04-25T11:53:51;17.40;64.60
11214;DHT22;5664;48.606;13.456;2023-04-25T11:56:17;17.40;64.60
11214;DHT22;5664;48.606;13.456;2023-04-25T11:58:57;17.40;64.60
11214;DHT22;5664;48.606;13.456;2023-04-25T12:01:27;17.40;64.60
11214;DHT22;5664;48.606;13.456;2023-04-25T12:03:52;17.40;64.60
11214;DHT22;5664;48.606;13.456;2023-04-25T12:06:18;17.40;64.60
11214;DHT22;5664;48.606;13.456;2023-04-25T12:09:00;17.40;64.60
11214;DHT22;5664;48.606;13.456;2023-04-25T12:11:25;17.40;64.60
11214;DHT22;5664;48.606;13.456;2023-04-25T12:13:51;17.40;64.60
11214;DHT22;5664;48.606;13.456;2023-04-25T12:16:18;17.30;64.60
11214;DHT22;5664;48.606;13.456;2023-04-25T12:18:43;17.40;64.60
11214;DHT22;5664;48.606;13.456;2023-04-25T12:21:09;17.40;64.60
11214;DHT22;5664;48.606;13.456;2023-04-25T12:23:34;17.40;64.60
11214;DHT22;5664;48.606;13.456;2023-04-25T12:26:03;17.40;64.60
11214;DHT22;5664;48.606;13.456;2023-04-25T12:28:29;17.30;64.50
11214;DHT22;5664;48.606;13.456;2023-04-25T12:31:07;17.40;64.60
11214;DHT22;5664;48.606;13.456;2023-04-25T12:33:33;17.40;64.50
11214;DHT22;5664;48.606;13.456;2023-04-25T12:35:59;17.40;64.60
11214;DHT22;5664;48.606;13.456;2023-04-25T12:40:50;17.40;64.60
11214;DHT22;5664;48.606;13.456;2023-04-25T12:43:16;17.30;64.50
11214;DHT22;5664;48.606;13.456;2023-04-25T12:45:42;17.30;64.50
11214;DHT22;5664;48.606;13.456;2023-04-25T12:48:08;17.30;64.50
11214;DHT22;5664;48.606;13.456;2023-04-25T12:50:33;17.30;64.50
11214;DHT22;5664;48.606;13.456;2023-04-25T12:52:58;17.30;64.50
11214;DHT22;5664;48.606;13.456;2023-04-25T12:55:24;17.30;64.50
11214;DHT22;5664;48.606;13.456;2023-04-25T12:57:50;17.30;64.50
11214;DHT22;5664;48.606;13.456;2023-04-25T13:00:15;17.40;64.60
11214;DHT22;5664;48.606;13.456;2023-04-25T13:02:43;17.30;64.50
11214;DHT22;5664;48.606;13.456;2023-04-25T13:05:08;17.30;64.60
11214;DHT22;5664;48.606;13.456;2023-04-25T13:07:34;17.40;64.60
11214;DHT22;5664;48.606;13.456;2023-04-25T13:09:59;17.30;64.50
11214;DHT22;5664;48.606;13.456;2023-04-25T13:12:27;17.30;64.50
11214;DHT22;5664;48.606;13.456;2023-04-25T13:14:53;17.30;64.50
11214;DHT22;5664;48.606;13.456;2023-04-25T13:17:18;17.30;64.50
11214;DHT22;5664;48.606;13.456;2023-04-25T13:19:44;17.30;64.60
11214;DHT22;5664;48.606;13.456;2023-04-25T13:22:09;17.30;64.60
11214;DHT22;5664;48.606;13.456;2023-04-25T13:24:35;17.30;64.60
11214;DHT22;5664;48.606;13.456;2023-04-25T13:27:00;17.30;64.60
11214;DHT22;5664;48.606;13.456;2023-04-25T13:29:26;17.30;64.60
11214;DHT22;5664;48.606;13.456;2023-04-25T13:31:52;17.30;64.60
11214;DHT22;5664;48.606;13.456;2023-04-25T13:34:17;17.30;64.60
11214;DHT22;5664;48.606;13.456;2023-04-25T13:36:43;17.30;64.60
11214;DHT22;5664;48.606;13.456;2023-04-25T13:39:08;17.30;64.60
11214;DHT22;5664;48.606;13.456;2023-04-25T13:41:34;17.40;64.70
11214;DHT22;5664;48.606;13.456;2023-04-25T13:43:59;17.30;64.70
11214;DHT22;5664;48.606;13.456;2023-04-25T13:46:26;17.30;64.70
11214;DHT22;5664;48.606;13.456;2023-04-25T13:48:51;17.30;65.50
11214;DHT22;5664;48.606;13.456;2023-04-25T13:51:17;17.30;64.70
11214;DHT22;5664;48.606;13.456;2023-04-25T13:53:43;17.30;64.80
11214;DHT22;5664;48.606;13.456;2023-04-25T13:56:09;17.30;64.80
11214;DHT22;5664;48.606;13.456;2023-04-25T13:58:36;17.30;64.80
11214;DHT22;5664;48.606;13.456;2023-04-25T14:01:01;17.30;64.80
11214;DHT22;5664;48.606;13.456;2023-04-25T14:03:28;17.30;64.80
11214;DHT22;5664;48.606;13.456;2023-04-25T14:05:54;17.30;64.80
11214;DHT22;5664;48.606;13.456;2023-04-25T14:08:20;17.30;64.80
11214;DHT22;5664;48.606;13.456;2023-04-25T14:10:46;17.30;64.80
11214;DHT22;5664;48.606;13.456;2023-04-25T14:13:11;17.30;64.80
11214;DHT22;5664;48.606;13.456;2023-04-25T14:15:36;17.30;64.80
11214;DHT22;5664;48.606;13.456;2023-04-25T14:18:02;17.30;65.60
11214;DHT22;5664;48.606;13.456;2023-04-25T14:20:27;17.30;64.80
11214;DHT22;5664;48.606;13.456;2023-04-25T14:22:53;17.30;64.80
11214;DHT22;5664;48.606;13.456;2023-04-25T14:25:21;17.30;64.80
11214;DHT22;5664;48.606;13.456;2023-04-25T14:27:47;17.20;64.80
11214;DHT22;5664;48.606;13.456;2023-04-25T14:30:17;17.20;64.80
11214;DHT22;5664;48.606;13.456;2023-04-25T14:32:43;17.20;64.70
11214;DHT22;5664;48.606;13.456;2023-04-25T14:35:09;17.20;64.70
11214;DHT22;5664;48.606;13.456;2023-04-25T14:37:35;17.20;64.70
11214;DHT22;5664;48.606;13.456;2023-04-25T14:40:00;17.20;64.70
11214;DHT22;5664;48.606;13.456;2023-04-25T14:42:26;17.20;64.70
11214;DHT22;5664;48.606;13.456;2023-04-25T14:44:51;17.20;64.70
11214;DHT22;5664;48.606;13.456;2023-04-25T14:47:17;17.20;64.60
11214;DHT22;5664;48.606;13.456;2023-04-25T14:49:43;17.20;64.60
11214;DHT22;5664;48.606;13.456;2023-04-25T14:52:09;17.20;64.60
11214;DHT22;5664;48.606;13.456;2023-04-25T14:54:34;17.20;64.60
11214;DHT22;5664;48.606;13.456;2023-04-25T14:57:00;17.20;64.60
11214;DHT22;5664;48.606;13.456;2023-04-25T14:59:26;17.20;64.60
11214;DHT22;5664;48.606;13.456;2023-04-25T15:01:52;17.30;64.70
11214;DHT22;5664;48.606;13.456;2023-04-25T15:04:18;17.20;64.60
11214;DHT22;5664;48.606;13.456;2023-04-25T15:06:43;17.20;64.60
11214;DHT22;5664;48.606;13.456;2023-04-25T15:09:09;17.20;64.70
11214;DHT22;5664;48.606;13.456;2023-04-25T15:11:36;17.20;64.70
11214;DHT22;5664;48.606;13.456;2023-04-25T15:14:02;17.20;64.70
11214;DHT22;5664;48.606;13.456;2023-04-25T15:16:27;17.20;64.70
11214;DHT22;5664;48.606;13.456;2023-04-25T15:18:52;17.20;64.70
11214;DHT22;5664;48.606;13.456;2023-04-25T15:21:18;17.20;64.70
11214;DHT22;5664;48.606;13.456;2023-04-25T15:23:43;17.20;64.70
11214;DHT22;5664;48.606;13.456;2023-04-25T15:26:09;17.20;64.70
11214;DHT22;5664;48.606;13.456;2023-04-25T15:28:35;17.20;64.70